sensor_id;sensor_type;location;lat;lon;timestamp;P1;durP1;ratioP1;P2;durP2;ratioP2
64903;SDS011;51401;48.882;12.598;2023-02-22T00:00:21;15.25;;;9.65;;
64903;SDS011;51401;48.882;12.598;2023-02-22T00:02:49;12.05;;;9.15;;
64903;SDS011;51401;48.882;12.598;2023-02-22T00:05:15;11.75;;;9.23;;
64903;SDS011;51401;48.882;12.598;2023-02-22T00:07:44;13.65;;;9.50;;
64903;SDS011;51401;48.882;12.598;2023-02-22T00:10:12;12.68;;;9.25;;
64903;SDS011;51401;48.882;12.598;2023-02-22T00:12:41;12.15;;;9.15;;
64903;SDS011;51401;48.882;12.598;2023-02-22T00:15:08;13.98;;;8.48;;
64903;SDS011;51401;48.882;12.598;2023-02-22T00:17:34;12.07;;;9.30;;
64903;SDS011;51401;48.882;12.598;2023-02-22T00:20:00;10.55;;;7.88;;
64903;SDS011;51401;48.882;12.598;2023-02-22T00:22:25;12.90;;;8.45;;
64903;SDS011;51401;48.882;12.598;2023-02-22T00:24:51;13.75;;;9.52;;
64903;SDS011;51401;48.882;12.598;2023-02-22T00:27:16;11.15;;;8.32;;
64903;SDS011;51401;48.882;12.598;2023-02-22T00:29:45;9.40;;;7.88;;
64903;SDS011;51401;48.882;12.598;2023-02-22T00:32:10;11.75;;;8.32;;
64903;SDS011;51401;48.882;12.598;2023-02-22T00:34:36;9.77;;;7.95;;
64903;SDS011;51401;48.882;12.598;2023-02-22T00:37:01;9.43;;;7.82;;
64903;SDS011;51401;48.882;12.598;2023-02-22T00:39:28;12.50;;;9.07;;
64903;SDS011;51401;48.882;12.598;2023-02-22T00:41:54;11.82;;;8.77;;
64903;SDS011;51401;48.882;12.598;2023-02-22T00:44:19;13.57;;;8.95;;
64903;SDS011;51401;48.882;12.598;2023-02-22T00:46:45;12.43;;;8.93;;
64903;SDS011;51401;48.882;12.598;2023-02-22T00:49:10;12.60;;;8.75;;
64903;SDS011;51401;48.882;12.598;2023-02-22T00:51:36;16.17;;;8.15;;
64903;SDS011;51401;48.882;12.598;2023-02-22T00:54:01;12.20;;;7.63;;
64903;SDS011;51401;48.882;12.598;2023-02-22T00:56:26;13.82;;;8.82;;
64903;SDS011;51401;48.882;12.598;2023-02-22T00:58:52;11.85;;;8.10;;
64903;SDS011;51401;48.882;12.598;2023-02-22T01:01:17;12.52;;;9.30;;
64903;SDS011;51401;48.882;12.598;2023-02-22T01:03:43;14.07;;;9.73;;
64903;SDS011;51401;48.882;12.598;2023-02-22T01:06:08;14.15;;;9.77;;
64903;SDS011;51401;48.882;12.598;2023-02-22T01:08:34;16.63;;;9.20;;
64903;SDS011;51401;48.882;12.598;2023-02-22T01:10:59;12.57;;;8.93;;
64903;SDS011;51401;48.882;12.598;2023-02-22T01:13:24;11.32;;;8.30;;
64903;SDS011;51401;48.882;12.598;2023-02-22T01:15:49;15.27;;;9.98;;
64903;SDS011;51401;48.882;12.598;2023-02-22T01:18:15;11.65;;;9.27;;
64903;SDS011;51401;48.882;12.598;2023-02-22T01:20:41;13.30;;;9.10;;
64903;SDS011;51401;48.882;12.598;2023-02-22T01:23:12;16.73;;;9.88;;
64903;SDS011;51401;48.882;12.598;2023-02-22T01:25:38;15.75;;;9.38;;
64903;SDS011;51401;48.882;12.598;2023-02-22T01:28:04;14.18;;;10.10;;
64903;SDS011;51401;48.882;12.598;2023-02-22T01:30:33;13.90;;;9.20;;
64903;SDS011;51401;48.882;12.598;2023-02-22T01:33:00;16.45;;;9.77;;
64903;SDS011;51401;48.882;12.598;2023-02-22T01:35:32;13.68;;;9.02;;
64903;SDS011;51401;48.882;12.598;2023-02-22T01:37:59;16.17;;;9.85;;
64903;SDS011;51401;48.882;12.598;2023-02-22T01:40:30;15.65;;;10.80;;
64903;SDS011;51401;48.882;12.598;2023-02-22T01:42:58;15.48;;;10.65;;
64903;SDS011;51401;48.882;12.598;2023-02-22T01:48:06;17.33;;;11.00;;
64903;SDS011;51401;48.882;12.598;2023-02-22T01:51:18;16.13;;;12.00;;
64903;SDS011;51401;48.882;12.598;2023-02-22T01:53:50;18.58;;;11.82;;
64903;SDS011;51401;48.882;12.598;2023-02-22T01:56:20;17.20;;;11.43;;
64903;SDS011;51401;48.882;12.598;2023-02-22T01:58:51;19.52;;;12.68;;
64903;SDS011;51401;48.882;12.598;2023-02-22T02:01:22;16.83;;;11.35;;
64903;SDS011;51401;48.882;12.598;2023-02-22T02:03:49;19.30;;;11.25;;
64903;SDS011;51401;48.882;12.598;2023-02-22T02:06:15;17.88;;;10.95;;
64903;SDS011;51401;48.882;12.598;2023-02-22T02:08:47;18.58;;;10.77;;
64903;SDS011;51401;48.882;12.598;2023-02-22T02:11:20;14.27;;;10.18;;
64903;SDS011;51401;48.882;12.598;2023-02-22T02:16:16;14.93;;;10.38;;
64903;SDS011;51401;48.882;12.598;2023-02-22T02:18:41;15.05;;;10.10;;
64903;SDS011;51401;48.882;12.598;2023-02-22T02:32:37;15.63;;;10.00;;
64903;SDS011;51401;48.882;12.598;2023-02-22T02:37:54;16.60;;;9.85;;
64903;SDS011;51401;48.882;12.598;2023-02-22T02:40:31;15.60;;;10.05;;
64903;SDS011;51401;48.882;12.598;2023-02-22T02:43:12;15.07;;;10.25;;
64903;SDS011;51401;48.882;12.598;2023-02-22T02:45:44;14.00;;;9.45;;
64903;SDS011;51401;48.882;12.598;2023-02-22T02:48:16;14.82;;;9.50;;
64903;SDS011;51401;48.882;12.598;2023-02-22T02:50:47;15.10;;;9.95;;
64903;SDS011;51401;48.882;12.598;2023-02-22T02:53:16;13.30;;;9.30;;
64903;SDS011;51401;48.882;12.598;2023-02-22T02:55:45;13.13;;;9.65;;
64903;SDS011;51401;48.882;12.598;2023-02-22T02:58:15;12.27;;;9.20;;
64903;SDS011;51401;48.882;12.598;2023-02-22T03:00:42;11.13;;;9.07;;
64903;SDS011;51401;48.882;12.598;2023-02-22T03:03:25;10.70;;;8.35;;
64903;SDS011;51401;48.882;12.598;2023-02-22T03:08:44;10.15;;;8.15;;
64903;SDS011;51401;48.882;12.598;2023-02-22T03:11:34;10.77;;;7.65;;
64903;SDS011;51401;48.882;12.598;2023-02-22T03:14:17;10.43;;;7.57;;
64903;SDS011;51401;48.882;12.598;2023-02-22T03:16:49;10.23;;;7.80;;
64903;SDS011;51401;48.882;12.598;2023-02-22T03:22:09;12.35;;;8.52;;
64903;SDS011;51401;48.882;12.598;2023-02-22T03:24:42;9.73;;;8.40;;
64903;SDS011;51401;48.882;12.598;2023-02-22T03:30:32;10.45;;;8.07;;
64903;SDS011;51401;48.882;12.598;2023-02-22T03:33:36;10.15;;;7.53;;
64903;SDS011;51401;48.882;12.598;2023-02-22T03:38:34;12.05;;;8.70;;
64903;SDS011;51401;48.882;12.598;2023-02-22T03:41:01;9.32;;;7.65;;
64903;SDS011;51401;48.882;12.598;2023-02-22T03:43:38;15.15;;;9.45;;
64903;SDS011;51401;48.882;12.598;2023-02-22T03:46:06;11.07;;;7.95;;
64903;SDS011;51401;48.882;12.598;2023-02-22T03:48:36;12.25;;;8.18;;
64903;SDS011;51401;48.882;12.598;2023-02-22T03:51:23;13.70;;;8.38;;
64903;SDS011;51401;48.882;12.598;2023-02-22T03:53:50;11.82;;;8.32;;
64903;SDS011;51401;48.882;12.598;2023-02-22T03:56:24;11.00;;;8.20;;
64903;SDS011;51401;48.882;12.598;2023-02-22T03:58:59;8.88;;;7.65;;
64903;SDS011;51401;48.882;12.598;2023-02-22T04:01:27;10.23;;;8.13;;
64903;SDS011;51401;48.882;12.598;2023-02-22T04:03:53;10.38;;;7.95;;
64903;SDS011;51401;48.882;12.598;2023-02-22T04:06:18;10.10;;;7.78;;
64903;SDS011;51401;48.882;12.598;2023-02-22T04:08:43;9.68;;;7.38;;
64903;SDS011;51401;48.882;12.598;2023-02-22T04:11:09;8.98;;;7.10;;
64903;SDS011;51401;48.882;12.598;2023-02-22T04:13:34;9.85;;;7.20;;
64903;SDS011;51401;48.882;12.598;2023-02-22T04:15:59;8.75;;;7.40;;
64903;SDS011;51401;48.882;12.598;2023-02-22T04:18:24;10.75;;;7.53;;
64903;SDS011;51401;48.882;12.598;2023-02-22T04:20:50;10.57;;;8.15;;
64903;SDS011;51401;48.882;12.598;2023-02-22T04:23:15;9.77;;;7.63;;
64903;SDS011;51401;48.882;12.598;2023-02-22T04:25:41;12.48;;;7.15;;
64903;SDS011;51401;48.882;12.598;2023-02-22T04:28:06;11.73;;;7.90;;
64903;SDS011;51401;48.882;12.598;2023-02-22T04:30:31;12.73;;;8.60;;
64903;SDS011;51401;48.882;12.598;2023-02-22T04:32:57;14.57;;;9.07;;
64903;SDS011;51401;48.882;12.598;2023-02-22T04:35:22;13.77;;;8.60;;
64903;SDS011;51401;48.882;12.598;2023-02-22T04:37:47;12.57;;;8.18;;
64903;SDS011;51401;48.882;12.598;2023-02-22T04:40:13;9.65;;;8.15;;
64903;SDS011;51401;48.882;12.598;2023-02-22T04:42:40;12.70;;;9.10;;
64903;SDS011;51401;48.882;12.598;2023-02-22T04:45:06;12.77;;;8.82;;
64903;SDS011;51401;48.882;12.598;2023-02-22T04:47:33;12.43;;;8.23;;
64903;SDS011;51401;48.882;12.598;2023-02-22T04:50:00;13.15;;;9.98;;
64903;SDS011;51401;48.882;12.598;2023-02-22T04:52:26;15.57;;;9.38;;
64903;SDS011;51401;48.882;12.598;2023-02-22T04:54:51;13.55;;;8.82;;
64903;SDS011;51401;48.882;12.598;2023-02-22T04:57:17;12.18;;;8.50;;
64903;SDS011;51401;48.882;12.598;2023-02-22T04:59:42;14.75;;;9.52;;
64903;SDS011;51401;48.882;12.598;2023-02-22T05:02:07;15.07;;;9.50;;
64903;SDS011;51401;48.882;12.598;2023-02-22T05:04:33;15.63;;;10.00;;
64903;SDS011;51401;48.882;12.598;2023-02-22T05:06:58;12.75;;;9.52;;
64903;SDS011;51401;48.882;12.598;2023-02-22T05:09:23;18.95;;;9.60;;
64903;SDS011;51401;48.882;12.598;2023-02-22T05:11:49;20.95;;;10.60;;
64903;SDS011;51401;48.882;12.598;2023-02-22T05:14:14;12.65;;;9.32;;
64903;SDS011;51401;48.882;12.598;2023-02-22T05:16:39;14.93;;;9.90;;
64903;SDS011;51401;48.882;12.598;2023-02-22T05:19:05;31.05;;;16.60;;
64903;SDS011;51401;48.882;12.598;2023-02-22T05:21:30;16.70;;;10.48;;
64903;SDS011;51401;48.882;12.598;2023-02-22T05:23:56;17.85;;;10.75;;
64903;SDS011;51401;48.882;12.598;2023-02-22T05:26:21;12.50;;;8.52;;
64903;SDS011;51401;48.882;12.598;2023-02-22T05:28:47;14.88;;;9.48;;
64903;SDS011;51401;48.882;12.598;2023-02-22T05:31:12;12.07;;;8.95;;
64903;SDS011;51401;48.882;12.598;2023-02-22T05:33:37;14.57;;;9.48;;
64903;SDS011;51401;48.882;12.598;2023-02-22T05:36:03;13.27;;;8.77;;
64903;SDS011;51401;48.882;12.598;2023-02-22T05:38:29;11.82;;;8.68;;
64903;SDS011;51401;48.882;12.598;2023-02-22T05:40:54;12.25;;;8.55;;
64903;SDS011;51401;48.882;12.598;2023-02-22T05:43:20;10.98;;;8.90;;
64903;SDS011;51401;48.882;12.598;2023-02-22T05:45:46;12.43;;;9.30;;
64903;SDS011;51401;48.882;12.598;2023-02-22T05:48:11;12.23;;;8.93;;
64903;SDS011;51401;48.882;12.598;2023-02-22T05:50:37;14.30;;;9.90;;
64903;SDS011;51401;48.882;12.598;2023-02-22T05:53:02;14.85;;;9.98;;
64903;SDS011;51401;48.882;12.598;2023-02-22T05:55:29;14.00;;;10.27;;
64903;SDS011;51401;48.882;12.598;2023-02-22T05:57:55;12.38;;;9.63;;
64903;SDS011;51401;48.882;12.598;2023-02-22T06:00:22;14.38;;;8.98;;
64903;SDS011;51401;48.882;12.598;2023-02-22T06:03:07;20.02;;;10.40;;
64903;SDS011;51401;48.882;12.598;2023-02-22T06:05:34;16.88;;;9.25;;
64903;SDS011;51401;48.882;12.598;2023-02-22T06:08:01;14.25;;;9.38;;
64903;SDS011;51401;48.882;12.598;2023-02-22T06:10:28;14.60;;;8.75;;
64903;SDS011;51401;48.882;12.598;2023-02-22T06:12:53;13.65;;;9.07;;
64903;SDS011;51401;48.882;12.598;2023-02-22T06:15:20;13.73;;;8.90;;
64903;SDS011;51401;48.882;12.598;2023-02-22T06:17:47;13.18;;;9.10;;
64903;SDS011;51401;48.882;12.598;2023-02-22T06:20:13;16.60;;;9.95;;
64903;SDS011;51401;48.882;12.598;2023-02-22T06:22:40;15.18;;;9.50;;
64903;SDS011;51401;48.882;12.598;2023-02-22T06:25:06;14.82;;;9.32;;
64903;SDS011;51401;48.882;12.598;2023-02-22T06:27:33;11.40;;;8.45;;
64903;SDS011;51401;48.882;12.598;2023-02-22T06:29:59;17.77;;;11.25;;
64903;SDS011;51401;48.882;12.598;2023-02-22T06:32:25;14.63;;;9.73;;
64903;SDS011;51401;48.882;12.598;2023-02-22T06:34:50;14.38;;;10.05;;
64903;SDS011;51401;48.882;12.598;2023-02-22T06:37:16;12.07;;;8.85;;
64903;SDS011;51401;48.882;12.598;2023-02-22T06:39:42;14.20;;;10.00;;
64903;SDS011;51401;48.882;12.598;2023-02-22T06:42:07;14.77;;;10.48;;
64903;SDS011;51401;48.882;12.598;2023-02-22T06:44:32;12.50;;;8.98;;
64903;SDS011;51401;48.882;12.598;2023-02-22T06:46:58;13.38;;;9.63;;
64903;SDS011;51401;48.882;12.598;2023-02-22T06:49:23;14.13;;;8.90;;
64903;SDS011;51401;48.882;12.598;2023-02-22T06:51:50;13.48;;;9.45;;
64903;SDS011;51401;48.882;12.598;2023-02-22T06:54:16;17.50;;;11.65;;
64903;SDS011;51401;48.882;12.598;2023-02-22T06:56:42;14.00;;;10.10;;
64903;SDS011;51401;48.882;12.598;2023-02-22T06:59:07;16.02;;;11.70;;
64903;SDS011;51401;48.882;12.598;2023-02-22T07:01:32;16.75;;;11.98;;
64903;SDS011;51401;48.882;12.598;2023-02-22T07:03:58;15.15;;;11.70;;
64903;SDS011;51401;48.882;12.598;2023-02-22T07:06:23;18.27;;;12.00;;
64903;SDS011;51401;48.882;12.598;2023-02-22T07:08:48;21.23;;;11.48;;
64903;SDS011;51401;48.882;12.598;2023-02-22T07:11:14;15.40;;;10.15;;
64903;SDS011;51401;48.882;12.598;2023-02-22T07:13:40;12.52;;;10.43;;
64903;SDS011;51401;48.882;12.598;2023-02-22T07:16:05;13.05;;;9.98;;
64903;SDS011;51401;48.882;12.598;2023-02-22T07:18:30;13.65;;;9.73;;
64903;SDS011;51401;48.882;12.598;2023-02-22T07:20:56;14.32;;;9.85;;
64903;SDS011;51401;48.882;12.598;2023-02-22T07:23:22;11.65;;;8.93;;
64903;SDS011;51401;48.882;12.598;2023-02-22T07:25:48;10.25;;;8.32;;
64903;SDS011;51401;48.882;12.598;2023-02-22T07:28:14;10.30;;;9.00;;
64903;SDS011;51401;48.882;12.598;2023-02-22T07:30:39;14.80;;;10.35;;
64903;SDS011;51401;48.882;12.598;2023-02-22T07:33:06;12.23;;;9.98;;
64903;SDS011;51401;48.882;12.598;2023-02-22T07:35:34;12.52;;;9.85;;
64903;SDS011;51401;48.882;12.598;2023-02-22T07:38:03;14.20;;;10.23;;
64903;SDS011;51401;48.882;12.598;2023-02-22T07:40:36;8.70;;;7.78;;
64903;SDS011;51401;48.882;12.598;2023-02-22T07:43:19;8.73;;;7.30;;
64903;SDS011;51401;48.882;12.598;2023-02-22T07:45:45;9.93;;;8.32;;
64903;SDS011;51401;48.882;12.598;2023-02-22T07:48:12;11.65;;;9.35;;
64903;SDS011;51401;48.882;12.598;2023-02-22T07:50:39;12.23;;;10.20;;
64903;SDS011;51401;48.882;12.598;2023-02-22T07:53:05;13.65;;;10.52;;
64903;SDS011;51401;48.882;12.598;2023-02-22T07:55:32;12.73;;;9.43;;
64903;SDS011;51401;48.882;12.598;2023-02-22T07:57:59;12.15;;;10.23;;
64903;SDS011;51401;48.882;12.598;2023-02-22T08:02:56;11.23;;;9.90;;
64903;SDS011;51401;48.882;12.598;2023-02-22T08:05:24;13.73;;;11.20;;
64903;SDS011;51401;48.882;12.598;2023-02-22T08:07:51;13.15;;;10.73;;
64903;SDS011;51401;48.882;12.598;2023-02-22T08:10:17;11.35;;;9.02;;
64903;SDS011;51401;48.882;12.598;2023-02-22T08:12:43;12.90;;;9.48;;
64903;SDS011;51401;48.882;12.598;2023-02-22T08:15:14;10.25;;;7.28;;
64903;SDS011;51401;48.882;12.598;2023-02-22T08:17:42;11.38;;;8.73;;
64903;SDS011;51401;48.882;12.598;2023-02-22T08:20:07;9.30;;;8.05;;
64903;SDS011;51401;48.882;12.598;2023-02-22T08:22:33;11.73;;;9.38;;
64903;SDS011;51401;48.882;12.598;2023-02-22T08:24:58;11.27;;;8.40;;
64903;SDS011;51401;48.882;12.598;2023-02-22T08:27:24;11.35;;;9.40;;
64903;SDS011;51401;48.882;12.598;2023-02-22T08:29:51;17.70;;;12.82;;
64903;SDS011;51401;48.882;12.598;2023-02-22T08:32:17;11.02;;;9.75;;
64903;SDS011;51401;48.882;12.598;2023-02-22T08:34:42;11.35;;;8.07;;
64903;SDS011;51401;48.882;12.598;2023-02-22T08:37:08;13.05;;;10.23;;
64903;SDS011;51401;48.882;12.598;2023-02-22T08:39:34;10.10;;;8.93;;
64903;SDS011;51401;48.882;12.598;2023-02-22T08:42:00;10.00;;;8.20;;
64903;SDS011;51401;48.882;12.598;2023-02-22T08:44:25;11.52;;;9.18;;
64903;SDS011;51401;48.882;12.598;2023-02-22T08:46:51;11.48;;;9.13;;
64903;SDS011;51401;48.882;12.598;2023-02-22T08:49:16;12.63;;;8.38;;
64903;SDS011;51401;48.882;12.598;2023-02-22T08:51:41;8.95;;;8.05;;
64903;SDS011;51401;48.882;12.598;2023-02-22T08:54:07;9.05;;;8.15;;
64903;SDS011;51401;48.882;12.598;2023-02-22T08:56:32;8.73;;;7.50;;
64903;SDS011;51401;48.882;12.598;2023-02-22T08:58:58;8.90;;;8.00;;
64903;SDS011;51401;48.882;12.598;2023-02-22T09:01:23;12.85;;;7.63;;
64903;SDS011;51401;48.882;12.598;2023-02-22T09:03:49;9.05;;;6.78;;
64903;SDS011;51401;48.882;12.598;2023-02-22T09:06:15;8.25;;;7.18;;
64903;SDS011;51401;48.882;12.598;2023-02-22T09:08:41;7.00;;;6.30;;
64903;SDS011;51401;48.882;12.598;2023-02-22T09:11:07;7.55;;;6.05;;
64903;SDS011;51401;48.882;12.598;2023-02-22T09:13:32;8.00;;;6.50;;
64903;SDS011;51401;48.882;12.598;2023-02-22T09:15:57;7.65;;;6.57;;
64903;SDS011;51401;48.882;12.598;2023-02-22T09:18:23;6.70;;;6.00;;
64903;SDS011;51401;48.882;12.598;2023-02-22T09:20:48;6.78;;;5.88;;
64903;SDS011;51401;48.882;12.598;2023-02-22T09:23:13;5.55;;;5.03;;
64903;SDS011;51401;48.882;12.598;2023-02-22T09:25:39;7.85;;;5.68;;
64903;SDS011;51401;48.882;12.598;2023-02-22T09:28:05;6.15;;;5.20;;
64903;SDS011;51401;48.882;12.598;2023-02-22T09:30:34;7.35;;;5.10;;
64903;SDS011;51401;48.882;12.598;2023-02-22T09:33:01;5.78;;;5.03;;
64903;SDS011;51401;48.882;12.598;2023-02-22T09:35:29;5.95;;;5.35;;
64903;SDS011;51401;48.882;12.598;2023-02-22T09:37:56;7.72;;;5.18;;
64903;SDS011;51401;48.882;12.598;2023-02-22T09:40:23;5.68;;;4.80;;
64903;SDS011;51401;48.882;12.598;2023-02-22T09:48:29;5.80;;;5.30;;
64903;SDS011;51401;48.882;12.598;2023-02-22T09:50:58;6.10;;;5.55;;
64903;SDS011;51401;48.882;12.598;2023-02-22T09:53:27;6.38;;;5.30;;
64903;SDS011;51401;48.882;12.598;2023-02-22T09:56:03;6.97;;;5.28;;
64903;SDS011;51401;48.882;12.598;2023-02-22T09:58:38;5.03;;;4.63;;
64903;SDS011;51401;48.882;12.598;2023-02-22T10:04:10;5.80;;;4.97;;
64903;SDS011;51401;48.882;12.598;2023-02-22T10:09:39;5.78;;;5.18;;
64903;SDS011;51401;48.882;12.598;2023-02-22T10:17:23;6.10;;;5.50;;
64903;SDS011;51401;48.882;12.598;2023-02-22T10:20:20;6.28;;;5.68;;
64903;SDS011;51401;48.882;12.598;2023-02-22T10:25:51;5.57;;;4.93;;
64903;SDS011;51401;48.882;12.598;2023-02-22T10:28:38;5.20;;;4.72;;
64903;SDS011;51401;48.882;12.598;2023-02-22T10:31:08;5.28;;;4.78;;
64903;SDS011;51401;48.882;12.598;2023-02-22T10:33:46;5.75;;;4.88;;
64903;SDS011;51401;48.882;12.598;2023-02-22T10:36:18;6.00;;;4.95;;
64903;SDS011;51401;48.882;12.598;2023-02-22T10:38:53;5.95;;;4.90;;
64903;SDS011;51401;48.882;12.598;2023-02-22T10:41:32;5.90;;;5.32;;
64903;SDS011;51401;48.882;12.598;2023-02-22T10:44:00;5.15;;;4.65;;
64903;SDS011;51401;48.882;12.598;2023-02-22T10:46:26;6.25;;;5.10;;
64903;SDS011;51401;48.882;12.598;2023-02-22T10:48:55;5.03;;;4.53;;
64903;SDS011;51401;48.882;12.598;2023-02-22T10:51:26;6.55;;;4.43;;
64903;SDS011;51401;48.882;12.598;2023-02-22T10:53:55;5.85;;;4.70;;
64903;SDS011;51401;48.882;12.598;2023-02-22T10:56:26;6.32;;;5.03;;
64903;SDS011;51401;48.882;12.598;2023-02-22T10:58:54;5.30;;;4.80;;
64903;SDS011;51401;48.882;12.598;2023-02-22T11:01:27;5.50;;;4.90;;
64903;SDS011;51401;48.882;12.598;2023-02-22T11:06:48;5.75;;;4.80;;
64903;SDS011;51401;48.882;12.598;2023-02-22T11:09:48;5.55;;;4.95;;
64903;SDS011;51401;48.882;12.598;2023-02-22T11:12:18;5.45;;;4.95;;
64903;SDS011;51401;48.882;12.598;2023-02-22T11:14:50;5.60;;;4.95;;
64903;SDS011;51401;48.882;12.598;2023-02-22T11:17:17;5.57;;;5.05;;
64903;SDS011;51401;48.882;12.598;2023-02-22T11:19:48;5.53;;;5.03;;
64903;SDS011;51401;48.882;12.598;2023-02-22T11:22:36;5.80;;;5.20;;
64903;SDS011;51401;48.882;12.598;2023-02-22T11:30:08;5.28;;;4.57;;
64903;SDS011;51401;48.882;12.598;2023-02-22T11:32:34;5.10;;;4.55;;
64903;SDS011;51401;48.882;12.598;2023-02-22T11:35:22;6.88;;;5.20;;
64903;SDS011;51401;48.882;12.598;2023-02-22T11:38:21;5.65;;;5.15;;
64903;SDS011;51401;48.882;12.598;2023-02-22T11:41:03;6.53;;;5.28;;
64903;SDS011;51401;48.882;12.598;2023-02-22T11:43:35;7.20;;;5.50;;
64903;SDS011;51401;48.882;12.598;2023-02-22T11:46:05;6.18;;;5.03;;
64903;SDS011;51401;48.882;12.598;2023-02-22T11:48:34;5.43;;;4.93;;
64903;SDS011;51401;48.882;12.598;2023-02-22T11:51:12;6.30;;;5.25;;
64903;SDS011;51401;48.882;12.598;2023-02-22T11:53:45;6.03;;;4.57;;
64903;SDS011;51401;48.882;12.598;2023-02-22T12:07:22;5.78;;;4.60;;
64903;SDS011;51401;48.882;12.598;2023-02-22T12:10:00;5.55;;;5.05;;
64903;SDS011;51401;48.882;12.598;2023-02-22T12:15:27;6.72;;;5.32;;
64903;SDS011;51401;48.882;12.598;2023-02-22T12:20:47;6.18;;;4.72;;
64903;SDS011;51401;48.882;12.598;2023-02-22T12:23:22;5.28;;;4.75;;
64903;SDS011;51401;48.882;12.598;2023-02-22T12:26:00;5.45;;;4.95;;
64903;SDS011;51401;48.882;12.598;2023-02-22T12:31:09;6.15;;;4.72;;
64903;SDS011;51401;48.882;12.598;2023-02-22T12:33:48;5.47;;;4.50;;
64903;SDS011;51401;48.882;12.598;2023-02-22T12:36:22;6.07;;;5.28;;
64903;SDS011;51401;48.882;12.598;2023-02-22T12:38:56;5.30;;;4.80;;
64903;SDS011;51401;48.882;12.598;2023-02-22T12:41:38;5.20;;;4.30;;
64903;SDS011;51401;48.882;12.598;2023-02-22T12:44:19;6.95;;;4.75;;
64903;SDS011;51401;48.882;12.598;2023-02-22T12:46:49;5.53;;;4.55;;
64903;SDS011;51401;48.882;12.598;2023-02-22T12:55:19;4.97;;;4.20;;
64903;SDS011;51401;48.882;12.598;2023-02-22T13:03:23;4.70;;;3.83;;
64903;SDS011;51401;48.882;12.598;2023-02-22T13:06:45;5.32;;;4.25;;
64903;SDS011;51401;48.882;12.598;2023-02-22T13:11:51;5.22;;;3.90;;
64903;SDS011;51401;48.882;12.598;2023-02-22T13:16:59;5.88;;;4.30;;
64903;SDS011;51401;48.882;12.598;2023-02-22T13:19:42;6.03;;;4.20;;
64903;SDS011;51401;48.882;12.598;2023-02-22T13:22:20;4.78;;;4.30;;
64903;SDS011;51401;48.882;12.598;2023-02-22T13:27:45;5.18;;;3.95;;
64903;SDS011;51401;48.882;12.598;2023-02-22T13:30:16;5.20;;;4.15;;
64903;SDS011;51401;48.882;12.598;2023-02-22T13:32:55;4.18;;;3.42;;
64903;SDS011;51401;48.882;12.598;2023-02-22T13:35:59;4.38;;;3.50;;
64903;SDS011;51401;48.882;12.598;2023-02-22T13:41:22;4.50;;;3.45;;
64903;SDS011;51401;48.882;12.598;2023-02-22T13:49:43;4.30;;;3.40;;
64903;SDS011;51401;48.882;12.598;2023-02-22T13:52:11;3.65;;;3.20;;
64903;SDS011;51401;48.882;12.598;2023-02-22T13:54:52;4.03;;;3.63;;
64903;SDS011;51401;48.882;12.598;2023-02-22T13:59:47;4.25;;;3.08;;
64903;SDS011;51401;48.882;12.598;2023-02-22T14:08:05;3.38;;;2.72;;
64903;SDS011;51401;48.882;12.598;2023-02-22T14:13:24;4.10;;;2.60;;
64903;SDS011;51401;48.882;12.598;2023-02-22T14:18:45;3.42;;;2.45;;
64903;SDS011;51401;48.882;12.598;2023-02-22T14:21:17;4.45;;;2.30;;
64903;SDS011;51401;48.882;12.598;2023-02-22T14:26:16;3.83;;;2.53;;
64903;SDS011;51401;48.882;12.598;2023-02-22T14:31:30;3.40;;;2.65;;
64903;SDS011;51401;48.882;12.598;2023-02-22T14:36:42;3.20;;;2.55;;
64903;SDS011;51401;48.882;12.598;2023-02-22T14:39:16;4.00;;;2.90;;
64903;SDS011;51401;48.882;12.598;2023-02-22T14:41:54;2.95;;;2.65;;
64903;SDS011;51401;48.882;12.598;2023-02-22T14:44:28;3.92;;;2.85;;
64903;SDS011;51401;48.882;12.598;2023-02-22T14:46:58;7.60;;;3.50;;
64903;SDS011;51401;48.882;12.598;2023-02-22T14:49:30;4.03;;;3.08;;
64903;SDS011;51401;48.882;12.598;2023-02-22T14:52:01;4.88;;;3.03;;
64903;SDS011;51401;48.882;12.598;2023-02-22T14:54:35;4.60;;;3.10;;
64903;SDS011;51401;48.882;12.598;2023-02-22T14:57:18;4.05;;;2.78;;
64903;SDS011;51401;48.882;12.598;2023-02-22T15:02:22;3.80;;;3.13;;
64903;SDS011;51401;48.882;12.598;2023-02-22T15:04:50;3.88;;;3.47;;
64903;SDS011;51401;48.882;12.598;2023-02-22T15:07:28;4.55;;;3.42;;
64903;SDS011;51401;48.882;12.598;2023-02-22T15:10:18;5.43;;;4.13;;
64903;SDS011;51401;48.882;12.598;2023-02-22T15:12:58;5.05;;;3.60;;
64903;SDS011;51401;48.882;12.598;2023-02-22T15:15:44;4.55;;;3.50;;
64903;SDS011;51401;48.882;12.598;2023-02-22T15:18:16;5.28;;;3.97;;
64903;SDS011;51401;48.882;12.598;2023-02-22T15:20:46;4.75;;;3.53;;
64903;SDS011;51401;48.882;12.598;2023-02-22T15:23:13;4.03;;;3.33;;
64903;SDS011;51401;48.882;12.598;2023-02-22T15:25:40;4.97;;;3.80;;
64903;SDS011;51401;48.882;12.598;2023-02-22T15:28:12;4.88;;;3.53;;
64903;SDS011;51401;48.882;12.598;2023-02-22T15:30:38;4.18;;;3.00;;
64903;SDS011;51401;48.882;12.598;2023-02-22T15:33:10;4.80;;;3.00;;
64903;SDS011;51401;48.882;12.598;2023-02-22T15:35:38;3.97;;;3.35;;
64903;SDS011;51401;48.882;12.598;2023-02-22T15:40:41;4.45;;;4.05;;
64903;SDS011;51401;48.882;12.598;2023-02-22T15:43:19;4.03;;;3.35;;
64903;SDS011;51401;48.882;12.598;2023-02-22T15:45:49;4.70;;;4.03;;
64903;SDS011;51401;48.882;12.598;2023-02-22T15:48:16;5.28;;;3.55;;
64903;SDS011;51401;48.882;12.598;2023-02-22T15:53:29;5.40;;;4.85;;
64903;SDS011;51401;48.882;12.598;2023-02-22T15:56:05;5.00;;;4.03;;
64903;SDS011;51401;48.882;12.598;2023-02-22T15:58:34;5.57;;;4.05;;
64903;SDS011;51401;48.882;12.598;2023-02-22T16:01:02;8.05;;;4.85;;
64903;SDS011;51401;48.882;12.598;2023-02-22T16:03:36;4.78;;;3.70;;
64903;SDS011;51401;48.882;12.598;2023-02-22T16:06:09;6.43;;;4.85;;
64903;SDS011;51401;48.882;12.598;2023-02-22T16:08:50;7.07;;;4.35;;
64903;SDS011;51401;48.882;12.598;2023-02-22T16:11:20;5.82;;;4.30;;
64903;SDS011;51401;48.882;12.598;2023-02-22T16:13:53;5.10;;;4.20;;
64903;SDS011;51401;48.882;12.598;2023-02-22T16:16:26;4.83;;;4.33;;
64903;SDS011;51401;48.882;12.598;2023-02-22T16:22:00;6.68;;;4.70;;
64903;SDS011;51401;48.882;12.598;2023-02-22T16:24:31;5.97;;;5.30;;
64903;SDS011;51401;48.882;12.598;2023-02-22T16:29:30;9.20;;;7.68;;
64903;SDS011;51401;48.882;12.598;2023-02-22T16:31:55;11.48;;;8.80;;
64903;SDS011;51401;48.882;12.598;2023-02-22T16:34:21;9.88;;;8.55;;
64903;SDS011;51401;48.882;12.598;2023-02-22T16:36:47;9.32;;;8.32;;
64903;SDS011;51401;48.882;12.598;2023-02-22T16:39:28;10.23;;;8.20;;
64903;SDS011;51401;48.882;12.598;2023-02-22T16:41:56;10.33;;;8.07;;
64903;SDS011;51401;48.882;12.598;2023-02-22T16:44:24;10.32;;;8.45;;
64903;SDS011;51401;48.882;12.598;2023-02-22T16:46:50;10.50;;;8.40;;
64903;SDS011;51401;48.882;12.598;2023-02-22T16:49:16;8.02;;;7.22;;
64903;SDS011;51401;48.882;12.598;2023-02-22T16:51:55;8.48;;;6.63;;
64903;SDS011;51401;48.882;12.598;2023-02-22T16:54:30;8.02;;;6.93;;
64903;SDS011;51401;48.882;12.598;2023-02-22T16:57:00;7.78;;;6.00;;
64903;SDS011;51401;48.882;12.598;2023-02-22T16:59:27;7.13;;;5.97;;
64903;SDS011;51401;48.882;12.598;2023-02-22T17:02:00;7.15;;;5.60;;
64903;SDS011;51401;48.882;12.598;2023-02-22T17:04:31;6.07;;;5.28;;